Hlavní strana
METAR-TAF:

METAR-TAF

Letiště :

Saskatoon, Saskatchewan, Kanada

zeměpisná šířka: 52-10N, zeměpisná délka: 106-41W, výška: 501 m

Aktuální stav počasí

Zpráva byla vytvořena před 28 minutami, v 13:00 UTC
Západní vítr 7 kt
Teplota 1°C
Vlhkost vzduchu 86%
Tlak 1026 hPa
Viditelnost: 24.1 km
Polojasno ve výšce 22000 ft

METAR: CYXE 231300Z 27007KT 15SM SCT220 01/M01 A3031 RMK CI3 SLP289

Čas: 07:28 (13:28 UTC)

Předpověď počasí

Zpráva byla vytvořena před 1 hodinou a 50 minutami, v 11:38 UTC
Předpověď platná od 23 v 12 UTC do 24 v 12 UTC
Západoseverozápadní vítr 10 kt
Viditelnost: 10 km
Polojasno ve výšce 22000 ft
Od 23 v 1900 UTC
Severozápadní vítr 18 kt
Viditelnost: 10 km
Skoro jasno ve výšce 6000 ft
Změna
od 24 v 01 UTC do 24 v 03 UTC
Západoseverozápadní vítr 8 kt
Změna
od 24 v 07 UTC do 24 v 09 UTC
Jihojihozápadní vítr 8 kt

TAF: CYXE 231138Z 2312/2412 29010KT P6SM SCT220 FM231900 32018KT P6SM FEW060 BECMG 2401/2403 30008KT BECMG 2407/2409 20008KT RMK NXT FCST BY 231800Z

Stav a předpovědi počasí z více než 4 000 letišť (zprávy METAR a TAF).

Červené a žluté tečky na mapě představují dostupné meteorologické stanice.

Když kurzor umístíte na tečku, zobrazí se název stanice.

Pak kliknutím zobrazíte stav a předpověď počasí.

Chcete-li změnit mapu, kliknutím na zelené tlačítko se znaménkem +mapu přiblížíte, kliknutím na zelené tlačítko se znaménkem – mapu oddálíte a kliknutím na zelené šipky přejdete na sousední mapy.


METAR-TAF: